Time;durP1;ratioP1;P1;durP2;ratioP2;P2;SDS_P1;SDS_P2;PMS_P1;PMS_P2;Temp;Humidity;BMP_temperature;BMP_pressure;BME280_temperature;BME280_humidity;BME280_pressure;Samples;Min_cycle;Max_cycle;Signal;HPM_P1;HPM_P2
2024/01/08 00:00:16;;;;;;;8.38;4.65;;;;;;;;;;5030545;28;20037;-56
2024/01/08 00:02:42;;;;;;;8.82;4.95;;;;;;;;;;5032959;28;20041;-55
2024/01/08 00:05:08;;;;;;;7.80;4.50;;;;;;;;;;5043402;28;20104;-55
2024/01/08 00:07:34;;;;;;;10.32;4.80;;;;;;;;;;5024206;28;20075;-54
2024/01/08 00:10:00;;;;;;;8.93;5.03;;;;;;;;;;5028921;28;20042;-55
2024/01/08 00:12:26;;;;;;;7.40;4.22;;;0.30;99.90;;;;;;5035073;28;20104;-53
2024/01/08 00:14:52;;;;;;;8.73;4.50;;;0.50;99.90;;;;;;5021949;28;20029;-52
2024/01/08 00:17:18;;;;;;;10.48;5.65;;;;;;;;;;5035510;28;20036;-55
2024/01/08 00:19:44;;;;;;;8.80;4.57;;;;;;;;;;5024153;28;20040;-53
2024/01/08 00:22:10;;;;;;;9.55;5.68;;;;;;;;;;5043344;28;20048;-56
2024/01/08 00:24:36;;;;;;;10.68;4.82;;;;;;;;;;5019048;28;20459;-55
2024/01/08 00:27:02;;;;;;;8.48;4.72;;;;;;;;;;5018343;28;20143;-56
2024/01/08 00:29:28;;;;;;;8.98;4.40;;;;;;;;;;5021369;28;20046;-56
2024/01/08 00:31:54;;;;;;;7.93;4.53;;;;;;;;;;5035500;28;20045;-51
2024/01/08 00:34:20;;;;;;;8.88;4.65;;;;;;;;;;5041502;28;20040;-53
2024/01/08 00:36:46;;;;;;;7.82;4.43;;;;;;;;;;5029058;28;21489;-56
2024/01/08 00:39:12;;;;;;;8.50;4.40;;;0.40;99.90;;;;;;5029038;28;20041;-55
2024/01/08 00:41:38;;;;;;;8.98;5.43;;;;;;;;;;5033412;28;20038;-52
2024/01/08 00:44:04;;;;;;;10.27;5.25;;;;;;;;;;5032218;28;20046;-55
2024/01/08 00:46:30;;;;;;;8.20;4.63;;;;;;;;;;5019469;28;20370;-55
2024/01/08 00:48:57;;;;;;;7.63;4.35;;;0.50;99.90;;;;;;5031493;28;20041;-55
2024/01/08 00:51:22;;;;;;;9.15;4.90;;;0.40;99.90;;;;;;5025998;28;20040;-55
2024/01/08 00:53:48;;;;;;;7.63;4.60;;;;;;;;;;5036919;28;20140;-54
2024/01/08 00:56:15;;;;;;;11.60;6.30;;;;;;;;;;5035547;28;20095;-55
2024/01/08 00:58:43;;;;;;;8.95;4.50;;;;;;;;;;5031203;28;20144;-55
2024/01/08 01:01:09;;;;;;;7.00;4.03;;;;;;;;;;5040487;28;20564;-54
2024/01/08 01:03:35;;;;;;;9.70;4.72;;;;;;;;;;5023048;28;20676;-56
2024/01/08 01:06:02;;;;;;;11.15;5.55;;;0.50;99.90;;;;;;5028396;28;20044;-55
2024/01/08 01:08:28;;;;;;;9.95;4.82;;;;;;;;;;5035428;28;20037;-54
2024/01/08 01:10:53;;;;;;;11.40;4.80;;;;;;;;;;5034922;28;20117;-55
2024/01/08 01:13:19;;;;;;;8.23;4.28;;;;;;;;;;5025608;28;20094;-55
2024/01/08 01:15:45;;;;;;;7.80;4.30;;;0.60;99.90;;;;;;5028688;28;20038;-56
2024/01/08 01:18:11;;;;;;;9.80;4.53;;;;;;;;;;5030161;28;20429;-54
2024/01/08 01:20:37;;;;;;;8.25;4.38;;;;;;;;;;5007158;28;20043;-55
2024/01/08 01:23:03;;;;;;;7.90;4.13;;;;;;;;;;5024516;28;20038;-55
2024/01/08 01:25:29;;;;;;;8.93;4.22;;;0.60;99.90;;;;;;5020916;28;20041;-55
2024/01/08 01:27:55;;;;;;;11.27;4.82;;;;;;;;;;5029985;28;20408;-55
2024/01/08 01:30:21;;;;;;;11.27;4.90;;;;;;;;;;5023478;28;20113;-54
2024/01/08 01:32:47;;;;;;;8.52;4.65;;;;;;;;;;5026277;28;20404;-51
2024/01/08 01:35:13;;;;;;;9.40;4.57;;;;;;;;;;5036106;28;20029;-55
2024/01/08 01:37:42;;;;;;;9.10;4.28;;;;;;;;;;5030724;28;20378;-54
2024/01/08 01:40:09;;;;;;;10.13;4.15;;;;;;;;;;5032041;28;20452;-54
2024/01/08 01:42:35;;;;;;;8.00;4.35;;;;;;;;;;5029950;28;20042;-55
2024/01/08 01:45:01;;;;;;;9.90;4.15;;;;;;;;;;5034639;28;20047;-55
2024/01/08 01:47:27;;;;;;;9.80;4.10;;;;;;;;;;5033870;28;20112;-55
2024/01/08 01:49:53;;;;;;;9.30;4.65;;;0.80;99.90;;;;;;5030506;28;20413;-55
2024/01/08 01:52:20;;;;;;;8.77;3.85;;;;;;;;;;5030117;28;20175;-55
2024/01/08 01:54:47;;;;;;;9.05;3.67;;;;;;;;;;5027624;28;20069;-51
2024/01/08 01:57:13;;;;;;;7.90;3.72;;;;;;;;;;5038152;28;20041;-52
2024/01/08 01:59:39;;;;;;;7.80;4.53;;;;;;;;;;5035903;28;20120;-54
2024/01/08 02:02:07;;;;;;;7.93;3.80;;;;;;;;;;5029275;28;20116;-54
2024/01/08 02:04:33;;;;;;;7.55;4.05;;;;;;;;;;5032644;28;20404;-55
2024/01/08 02:07:00;;;;;;;9.35;4.30;;;;;;;;;;5012033;28;20041;-54
2024/01/08 02:09:27;;;;;;;7.35;3.95;;;0.00;99.90;;;;;;5027249;28;20041;-52
2024/01/08 02:11:52;;;;;;;9.10;4.72;;;-0.20;99.90;;;;;;5035284;28;20121;-55
2024/01/08 02:14:18;;;;;;;9.32;4.72;;;;;;;;;;5036740;28;20484;-55
2024/01/08 02:16:45;;;;;;;7.65;4.20;;;;;;;;;;5030659;28;20029;-55
2024/01/08 02:19:11;;;;;;;9.82;4.53;;;;;;;;;;5032461;28;20069;-56
2024/01/08 02:21:37;;;;;;;10.30;4.97;;;;;;;;;;5034488;28;20575;-53
2024/01/08 02:24:04;;;;;;;8.52;4.80;;;;;;;;;;5028005;28;20049;-55
2024/01/08 02:26:30;;;;;;;8.75;4.65;;;;;;;;;;5032437;28;20405;-55
2024/01/08 02:28:56;;;;;;;8.18;4.50;;;;;;;;;;5028705;28;20099;-55
2024/01/08 02:31:22;;;;;;;11.05;5.57;;;;;;;;;;5028299;28;20034;-53
2024/01/08 02:33:48;;;;;;;9.57;4.90;;;;;;;;;;5029615;28;20037;-52
2024/01/08 02:36:14;;;;;;;7.22;4.20;;;;;;;;;;5020549;28;20033;-54
2024/01/08 02:38:40;;;;;;;10.45;4.88;;;;;;;;;;5028265;28;20502;-54
2024/01/08 02:41:06;;;;;;;8.40;4.32;;;-0.20;99.90;;;;;;5008055;28;20073;-53
2024/01/08 02:43:32;;;;;;;7.65;4.60;;;;;;;;;;5021166;28;20124;-55
2024/01/08 02:45:58;;;;;;;9.68;4.70;;;;;;;;;;5022391;28;20052;-54
2024/01/08 02:48:24;;;;;;;8.60;4.75;;;;;;;;;;5013221;28;20037;-53
2024/01/08 02:50:50;;;;;;;8.82;5.30;;;;;;;;;;5033261;28;20116;-55
2024/01/08 02:53:16;;;;;;;9.20;5.47;;;0.10;99.90;;;;;;5028746;28;20040;-53
2024/01/08 02:55:42;;;;;;;9.73;4.95;;;;;;;;;;5029210;28;20042;-54
2024/01/08 02:58:10;;;;;;;7.63;4.60;;;;;;;;;;5030030;28;20030;-55
2024/01/08 03:00:36;;;;;;;9.30;5.63;;;;;;;;;;5031455;28;20045;-55
2024/01/08 03:03:02;;;;;;;9.52;5.35;;;;;;;;;;5039061;28;20045;-55
2024/01/08 03:05:28;;;;;;;8.23;4.85;;;;;;;;;;5038610;28;20091;-54
2024/01/08 03:07:54;;;;;;;8.55;4.40;;;;;;;;;;5020260;28;20074;-55
2024/01/08 03:10:20;;;;;;;8.75;4.35;;;;;;;;;;5023833;28;20068;-55
2024/01/08 03:12:46;;;;;;;7.90;4.88;;;;;;;;;;5031325;28;20045;-50
2024/01/08 03:15:12;;;;;;;10.02;4.70;;;0.10;99.90;;;;;;5033362;28;20037;-55
2024/01/08 03:17:38;;;;;;;9.30;4.65;;;;;;;;;;5037001;28;20063;-54
2024/01/08 03:20:08;;;;;;;8.77;4.38;;;;;;;;;;5032717;28;20048;-54
2024/01/08 03:22:34;;;;;;;7.15;4.13;;;;;;;;;;5032649;28;20485;-54
2024/01/08 03:25:00;;;;;;;8.18;4.43;;;;;;;;;;5038028;28;20040;-53
2024/01/08 03:27:26;;;;;;;11.10;4.68;;;;;;;;;;5035223;28;20037;-54
2024/01/08 03:29:52;;;;;;;9.65;5.15;;;;;;;;;;5038830;28;20056;-53
2024/01/08 03:32:19;;;;;;;9.60;4.75;;;;;;;;;;5036184;28;20048;-54
2024/01/08 03:34:46;;;;;;;9.25;5.35;;;0.10;99.90;;;;;;5040455;28;20127;-54
2024/01/08 03:37:12;;;;;;;7.95;4.20;;;;;;;;;;5038833;28;20049;-54
2024/01/08 03:39:38;;;;;;;8.77;4.95;;;;;;;;;;5027706;28;20042;-54
2024/01/08 03:42:04;;;;;;;8.02;4.65;;;0.40;99.90;;;;;;5020603;28;20041;-55
2024/01/08 03:44:30;;;;;;;8.48;4.53;;;;;;;;;;5034261;28;20048;-55
2024/01/08 03:46:56;;;;;;;8.95;5.13;;;;;;;;;;5031425;28;20037;-54
2024/01/08 03:49:22;;;;;;;8.07;4.80;;;;;;;;;;5037546;28;20079;-54
2024/01/08 03:51:48;;;;;;;9.68;4.95;;;;;;;;;;5038453;28;20069;-55
2024/01/08 03:54:14;;;;;;;8.32;4.82;;;;;;;;;;5032685;28;20095;-55
2024/01/08 03:56:40;;;;;;;9.15;4.90;;;0.40;99.90;;;;;;5037392;28;20040;-54
2024/01/08 03:59:07;;;;;;;10.13;4.85;;;;;;;;;;5035473;28;20041;-54
2024/01/08 04:01:33;;;;;;;9.65;5.00;;;0.40;99.90;;;;;;5036389;28;20049;-53
2024/01/08 04:03:59;;;;;;;10.45;5.18;;;;;;;;;;5035592;28;20045;-54
2024/01/08 04:06:26;;;;;;;10.35;5.22;;;;;;;;;;5036081;28;20035;-55
2024/01/08 04:08:52;;;;;;;8.77;4.78;;;;;;;;;;5035688;28;20076;-50
2024/01/08 04:11:18;;;;;;;10.40;5.85;;;;;;;;;;5036646;28;20037;-56
2024/01/08 04:13:44;;;;;;;9.85;5.32;;;;;;;;;;5039251;28;20451;-51
2024/01/08 04:16:10;;;;;;;9.52;5.50;;;;;;;;;;5033756;28;20040;-54
2024/01/08 04:18:36;;;;;;;10.80;5.68;;;;;;;;;;5035152;28;20699;-54
2024/01/08 04:21:02;;;;;;;9.18;5.53;;;;;;;;;;5038136;28;20159;-51
2024/01/08 04:23:27;;;;;;;8.55;5.28;;;0.50;99.90;;;;;;5035712;28;20041;-55
2024/01/08 04:25:53;;;;;;;9.80;5.78;;;0.60;99.90;;;;;;5035615;28;20090;-55
2024/01/08 04:28:21;;;;;;;9.93;5.80;;;0.50;99.90;;;;;;5030247;28;20433;-55
2024/01/08 04:30:47;;;;;;;10.27;6.22;;;;;;;;;;5037523;28;20033;-54
2024/01/08 04:33:12;;;;;;;10.18;6.00;;;0.50;99.90;;;;;;5016763;28;20742;-54
2024/01/08 04:35:38;;;;;;;10.68;5.68;;;0.60;99.90;;;;;;5036970;28;20069;-55
2024/01/08 04:38:04;;;;;;;10.90;5.75;;;;;;;;;;5037220;28;20412;-56
2024/01/08 04:40:30;;;;;;;9.90;6.00;;;;;;;;;;5022927;28;20517;-55
2024/01/08 04:42:56;;;;;;;9.88;5.40;;;;;;;;;;5034482;28;20043;-55
2024/01/08 04:45:22;;;;;;;9.23;5.38;;;;;;;;;;5035323;28;20049;-55
2024/01/08 04:47:48;;;;;;;8.48;5.03;;;;;;;;;;5037555;28;20125;-52
2024/01/08 04:50:14;;;;;;;10.80;6.03;;;;;;;;;;5036284;28;20038;-55
2024/01/08 04:52:40;;;;;;;10.10;5.57;;;;;;;;;;5037024;28;20029;-54
2024/01/08 04:55:06;;;;;;;10.07;6.13;;;0.60;99.90;;;;;;5037564;28;20049;-54
2024/01/08 04:57:31;;;;;;;10.52;5.85;;;0.70;99.90;;;;;;5037652;28;20041;-55
2024/01/08 04:59:57;;;;;;;9.95;6.38;;;;;;;;;;5034972;28;20516;-54
2024/01/08 05:02:23;;;;;;;9.85;5.35;;;;;;;;;;5038223;28;20124;-55
2024/01/08 05:04:49;;;;;;;10.27;6.00;;;;;;;;;;5033673;28;20515;-53
2024/01/08 05:07:16;;;;;;;10.55;5.88;;;;;;;;;;5030849;28;20041;-52
2024/01/08 05:09:42;;;;;;;12.27;6.28;;;;;;;;;;5029710;28;20041;-52
2024/01/08 05:12:08;;;;;;;11.45;6.35;;;;;;;;;;5033575;28;20037;-55
2024/01/08 05:14:34;;;;;;;9.85;5.03;;;;;;;;;;5033041;28;20034;-53
2024/01/08 05:16:59;;;;;;;8.85;5.05;;;0.60;99.90;;;;;;5036390;28;20045;-51
2024/01/08 05:19:25;;;;;;;8.50;5.07;;;;;;;;;;5037149;28;20041;-52
2024/01/08 05:21:53;;;;;;;9.85;4.43;;;;;;;;;;5038431;28;20508;-55
2024/01/08 05:24:19;;;;;;;8.73;4.60;;;;;;;;;;5030889;28;20079;-51
2024/01/08 05:26:45;;;;;;;9.85;4.82;;;;;;;;;;5020738;28;20175;-54
2024/01/08 05:29:11;;;;;;;8.65;4.13;;;;;;;;;;5025857;28;20564;-55
2024/01/08 05:31:37;;;;;;;9.70;4.47;;;;;;;;;;5021907;28;20122;-53
2024/01/08 05:34:03;;;;;;;11.40;4.75;;;;;;;;;;5024576;28;20091;-52
2024/01/08 05:36:29;;;;;;;7.70;3.58;;;;;;;;;;5022111;28;20113;-51
2024/01/08 05:38:59;;;;;;;8.85;3.95;;;;;;;;;;5032021;28;20044;-55
2024/01/08 05:41:25;;;;;;;9.43;3.90;;;;;;;;;;5024769;28;20497;-52
2024/01/08 05:43:51;;;;;;;8.35;3.15;;;;;;;;;;5026914;28;20508;-54
2024/01/08 05:46:17;;;;;;;6.80;3.92;;;;;;;;;;5028961;28;20484;-54
2024/01/08 05:48:43;;;;;;;7.97;3.45;;;0.70;99.90;;;;;;5027759;28;20129;-51
2024/01/08 05:51:09;;;;;;;8.27;3.35;;;;;;;;;;5031172;28;20041;-54
2024/01/08 05:53:35;;;;;;;8.23;3.67;;;;;;;;;;5032328;28;20123;-52
2024/01/08 05:56:01;;;;;;;6.50;3.35;;;;;;;;;;5015630;28;20042;-55
2024/01/08 05:58:27;;;;;;;8.25;3.30;;;;;;;;;;5017013;28;20694;-55
2024/01/08 06:00:54;;;;;;;7.05;3.28;;;;;;;;;;5021507;28;20045;-55
2024/01/08 06:03:20;;;;;;;7.07;3.15;;;;;;;;;;5036189;28;20041;-55
2024/01/08 06:05:46;;;;;;;8.88;3.53;;;;;;;;;;5032147;28;20177;-52
2024/01/08 06:08:13;;;;;;;8.20;3.50;;;;;;;;;;5029546;28;20144;-52
2024/01/08 06:10:40;;;;;;;7.03;3.50;;;;;;;;;;5029073;28;20571;-55
2024/01/08 06:13:06;;;;;;;8.10;4.20;;;;;;;;;;5027881;28;20112;-54
2024/01/08 06:15:33;;;;;;;7.72;3.63;;;;;;;;;;5033370;28;20083;-54
2024/01/08 06:17:59;;;;;;;8.73;4.60;;;;;;;;;;5029442;28;20057;-55
2024/01/08 06:20:25;;;;;;;6.85;3.70;;;;;;;;;;5030576;28;20067;-54
2024/01/08 06:23:07;;;;;;;9.75;4.60;;;;;;;;;;5032635;28;20045;-55
2024/01/08 06:25:33;;;;;;;8.20;3.88;;;;;;;;;;5028835;28;20041;-52
2024/01/08 06:27:58;;;;;;;7.22;4.20;;;-0.40;99.90;;;;;;5038311;28;20576;-54
2024/01/08 06:30:24;;;;;;;7.07;3.70;;;;;;;;;;5030692;28;20039;-55
2024/01/08 06:32:50;;;;;;;7.53;4.00;;;;;;;;;;5034036;28;20038;-54
2024/01/08 06:35:16;;;;;;;6.72;3.78;;;;;;;;;;5036301;28;20040;-53
2024/01/08 06:37:42;;;;;;;7.35;3.60;;;;;;;;;;5038194;28;20100;-53
2024/01/08 06:40:09;;;;;;;8.82;4.20;;;;;;;;;;5043781;28;20037;-55
2024/01/08 06:42:35;;;;;;;9.50;4.38;;;;;;;;;;5035791;28;20076;-51
2024/01/08 06:45:00;;;;;;;7.45;3.95;;;-0.70;99.90;;;;;;5042505;28;20480;-54
2024/01/08 06:47:26;;;;;;;9.82;4.25;;;-0.70;99.90;;;;;;5038611;28;20041;-52
2024/01/08 06:49:52;;;;;;;7.85;4.03;;;;;;;;;;5042575;28;20048;-55
2024/01/08 06:52:18;;;;;;;8.63;3.70;;;;;;;;;;5040144;28;20038;-53
2024/01/08 06:54:44;;;;;;;7.97;3.88;;;;;;;;;;5036747;28;20034;-55
2024/01/08 06:57:10;;;;;;;7.03;3.47;;;;;;;;;;5039744;28;20087;-55
2024/01/08 06:59:36;;;;;;;7.68;3.90;;;;;;;;;;5039023;28;20041;-54
2024/01/08 07:02:02;;;;;;;6.53;3.58;;;;;;;;;;5038193;28;20041;-53
2024/01/08 07:04:28;;;;;;;8.75;4.10;;;;;;;;;;5039836;28;20036;-56
2024/01/08 07:06:54;;;;;;;7.22;3.80;;;;;;;;;;5040544;28;20068;-54
2024/01/08 07:09:20;;;;;;;9.57;4.13;;;;;;;;;;5032357;28;20058;-53
2024/01/08 07:11:46;;;;;;;8.65;3.70;;;-0.80;99.90;;;;;;5034267;28;20037;-55
2024/01/08 07:14:12;;;;;;;8.10;3.75;;;;;;;;;;5039375;28;20120;-54
2024/01/08 07:16:38;;;;;;;16.15;5.20;;;;;;;;;;5039467;28;20413;-54
2024/01/08 07:19:04;;;;;;;10.32;4.25;;;;;;;;;;5036641;28;20045;-53
2024/01/08 07:21:30;;;;;;;7.15;3.58;;;;;;;;;;5038749;28;20497;-55
2024/01/08 07:23:56;;;;;;;9.30;4.05;;;;;;;;;;5041864;28;20611;-55
2024/01/08 07:26:23;;;;;;;8.57;4.25;;;;;;;;;;5040487;28;20048;-54
2024/01/08 07:28:49;;;;;;;9.27;4.30;;;;;;;;;;5038900;28;20559;-54
2024/01/08 07:31:15;;;;;;;7.90;3.67;;;;;;;;;;5025008;28;20037;-54
2024/01/08 07:33:41;;;;;;;7.13;3.25;;;;;;;;;;5039260;28;20158;-55
2024/01/08 07:36:08;;;;;;;9.95;4.47;;;;;;;;;;5039466;28;20067;-56
2024/01/08 07:38:34;;;;;;;10.95;4.38;;;;;;;;;;5037437;28;20102;-52
2024/01/08 07:41:00;;;;;;;8.07;3.75;;;;;;;;;;5040571;28;20053;-52
2024/01/08 07:43:26;;;;;;;10.43;4.00;;;;;;;;;;5039257;28;20399;-55
2024/01/08 07:45:53;;;;;;;9.13;3.83;;;;;;;;;;5043183;28;20037;-55
2024/01/08 07:48:19;;;;;;;8.48;4.43;;;;;;;;;;5024944;28;20410;-55
2024/01/08 07:50:46;;;;;;;8.63;3.95;;;;;;;;;;5029836;28;20045;-55
2024/01/08 07:53:11;;;;;;;9.77;3.55;;;;;;;;;;5036081;28;20041;-54
2024/01/08 07:55:37;;;;;;;8.20;4.20;;;;;;;;;;5033472;28;20516;-54
2024/01/08 07:58:04;;;;;;;11.20;4.78;;;;;;;;;;5031801;28;20048;-52
2024/01/08 08:00:30;;;;;;;7.25;3.30;;;;;;;;;;5019842;28;20128;-55
2024/01/08 08:02:56;;;;;;;9.02;3.90;;;;;;;;;;5031736;28;20594;-52
2024/01/08 08:05:22;;;;;;;7.80;3.88;;;;;;;;;;5028369;28;20045;-55
2024/01/08 08:07:49;;;;;;;10.63;4.38;;;;;;;;;;5031222;28;20053;-52
2024/01/08 08:10:15;;;;;;;9.40;4.00;;;;;;;;;;5028892;28;20036;-52
2024/01/08 08:12:41;;;;;;;10.07;4.45;;;-1.10;99.90;;;;;;5039294;28;20500;-53
2024/01/08 08:15:07;;;;;;;6.95;3.85;;;-1.00;99.90;;;;;;5035539;28;20123;-55
2024/01/08 08:17:33;;;;;;;8.98;3.33;;;-1.00;99.90;;;;;;5025849;28;20494;-54
2024/01/08 08:19:59;;;;;;;11.07;3.80;;;;;;;;;;5019168;28;20095;-54
2024/01/08 08:22:25;;;;;;;9.85;4.25;;;;;;;;;;5041944;28;20171;-55
2024/01/08 08:24:51;;;;;;;8.98;4.07;;;;;;;;;;5039498;28;20608;-54
2024/01/08 08:27:17;;;;;;;7.93;4.43;;;;;;;;;;5036888;28;20072;-55
2024/01/08 08:29:44;;;;;;;9.50;3.90;;;;;;;;;;5027222;28;20125;-55
2024/01/08 08:32:10;;;;;;;7.90;3.60;;;;;;;;;;5038124;28;20072;-54
2024/01/08 08:34:36;;;;;;;9.48;4.20;;;;;;;;;;5036809;28;20665;-54
2024/01/08 08:37:02;;;;;;;9.65;3.80;;;;;;;;;;5032910;28;20568;-51
2024/01/08 08:39:28;;;;;;;8.18;3.90;;;;;;;;;;5032427;28;20500;-51
2024/01/08 08:41:57;;;;;;;8.98;3.85;;;;;;;;;;5029677;28;20048;-50
2024/01/08 08:44:23;;;;;;;7.78;3.42;;;;;;;;;;5031591;28;20045;-55
2024/01/08 08:46:50;;;;;;;10.60;4.00;;;;;;;;;;5030401;28;20037;-52
2024/01/08 08:49:16;;;;;;;7.50;3.22;;;;;;;;;;5031297;28;20045;-54
2024/01/08 08:51:43;;;;;;;10.23;3.60;;;;;;;;;;5041517;28;20045;-54
2024/01/08 08:54:08;;;;;;;9.13;3.63;;;0.20;99.90;;;;;;5037568;28;20040;-54
2024/01/08 08:56:34;;;;;;;17.88;5.53;;;0.20;99.90;;;;;;5024423;28;20547;-54
2024/01/08 08:59:00;;;;;;;7.57;3.15;;;;;;;;;;5037173;28;20037;-54
2024/01/08 09:01:27;;;;;;;9.48;3.47;;;0.20;99.90;;;;;;5029267;28;20103;-55
2024/01/08 09:03:53;;;;;;;7.22;3.30;;;;;;;;;;5041321;28;20140;-55
2024/01/08 09:06:27;;;;;;;7.53;3.03;;;;;;;;;;5030642;28;20512;-54
2024/01/08 09:08:54;;;;;;;8.55;3.30;;;0.90;99.90;;;;;;5035849;28;20056;-55
2024/01/08 09:11:20;;;;;;;8.10;4.00;;;;;;;;;;5037734;28;20554;-54
2024/01/08 09:13:47;;;;;;;8.05;3.55;;;;;;;;;;5034023;28;20389;-54
2024/01/08 09:16:14;;;;;;;11.10;3.45;;;;;;;;;;5037809;28;20117;-52
2024/01/08 09:18:43;;;;;;;6.30;2.72;;;;;;;;;;5037647;28;20040;-53
2024/01/08 09:21:13;;;;;;;9.20;3.75;;;;;;;;;;5046378;28;20090;-54
2024/01/08 09:23:41;;;;;;;8.55;2.83;;;;;;;;;;5035261;28;20037;-54
2024/01/08 09:26:07;;;;;;;9.60;3.60;;;;;;;;;;5034286;28;20055;-52
2024/01/08 09:28:33;;;;;;;7.38;3.00;;;0.70;99.90;;;;;;5035348;28;20083;-54
2024/01/08 09:31:00;;;;;;;8.23;2.80;;;;;;;;;;5034707;28;20396;-54
2024/01/08 09:33:26;;;;;;;7.82;2.72;;;;;;;;;;5035757;28;20048;-54
2024/01/08 09:35:52;;;;;;;4.75;2.08;;;;;;;;;;5039801;28;20028;-54
2024/01/08 09:38:18;;;;;;;6.35;2.20;;;;;;;;;;5037357;28;20500;-54
2024/01/08 09:40:45;;;;;;;8.27;2.72;;;;;;;;;;5037254;28;20420;-54
2024/01/08 09:43:14;;;;;;;6.63;2.63;;;;;;;;;;5032115;28;20040;-54
2024/01/08 09:45:49;;;;;;;5.43;2.42;;;;;;;;;;5016733;28;20064;-54
2024/01/08 09:48:16;;;;;;;5.78;2.33;;;;;;;;;;5037127;28;20041;-54
2024/01/08 09:50:42;;;;;;;5.40;2.20;;;;;;;;;;5038994;28;20075;-54
2024/01/08 09:53:08;;;;;;;6.30;2.67;;;;;;;;;;4994875;28;20038;-50
2024/01/08 09:55:35;;;;;;;8.35;2.60;;;;;;;;;;5036762;28;20037;-53
2024/01/08 09:58:01;;;;;;;6.05;2.40;;;;;;;;;;5032164;28;20032;-54
2024/01/08 10:00:27;;;;;;;5.78;2.92;;;;;;;;;;5029580;28;20113;-53
2024/01/08 10:02:57;;;;;;;7.15;2.38;;;;;;;;;;5040759;28;20102;-53
2024/01/08 10:05:23;;;;;;;6.50;2.40;;;;;;;;;;5027797;28;20116;-54
2024/01/08 10:07:49;;;;;;;6.10;2.25;;;1.60;99.90;;;;;;5036804;28;20077;-54
2024/01/08 10:10:15;;;;;;;5.97;2.53;;;;;;;;;;5034007;28;20040;-53
2024/01/08 10:12:43;;;;;;;5.90;2.42;;;2.00;99.90;;;;;;5036010;28;20029;-50
2024/01/08 10:15:10;;;;;;;5.97;2.40;;;;;;;;;;5039306;28;20501;-52
2024/01/08 10:17:36;;;;;;;7.78;2.42;;;;;;;;;;5037933;28;20045;-56
2024/01/08 10:20:06;;;;;;;6.25;2.40;;;;;;;;;;5043299;28;20040;-54
2024/01/08 10:22:32;;;;;;;6.85;2.20;;;;;;;;;;5039627;28;20044;-54
2024/01/08 10:25:01;;;;;;;7.40;2.60;;;;;;;;;;5040478;28;20055;-54
2024/01/08 10:27:29;;;;;;;7.85;2.60;;;;;;;;;;5036601;28;20397;-54
2024/01/08 10:29:55;;;;;;;8.60;2.72;;;;;;;;;;5039283;28;20044;-54
2024/01/08 10:32:23;;;;;;;5.85;2.28;;;;;;;;;;5040283;28;20050;-54
2024/01/08 10:34:49;;;;;;;8.73;2.60;;;;;;;;;;5038878;28;20037;-55
2024/01/08 10:37:16;;;;;;;6.72;2.75;;;;;;;;;;5041679;28;20041;-54
2024/01/08 10:39:42;;;;;;;6.38;2.08;;;2.10;99.90;;;;;;5036495;28;20132;-52
2024/01/08 10:42:09;;;;;;;6.78;2.70;;;;;;;;;;5015146;28;20040;-53
2024/01/08 10:44:35;;;;;;;7.13;2.55;;;;;;;;;;5033538;28;20041;-55
2024/01/08 10:47:06;;;;;;;8.93;2.53;;;2.10;99.90;;;;;;5037925;28;20077;-55
2024/01/08 10:49:33;;;;;;;6.93;3.10;;;;;;;;;;5036311;28;20431;-54
2024/01/08 10:52:00;;;;;;;8.50;2.50;;;2.10;99.90;;;;;;5040141;28;20091;-55
2024/01/08 10:54:39;;;;;;;7.30;2.45;;;2.20;99.90;;;;;;5037125;28;20069;-54
2024/01/08 10:57:10;;;;;;;7.80;3.75;;;;;;;;;;5032877;28;20037;-54
2024/01/08 10:59:37;;;;;;;6.35;2.80;;;;;;;;;;5036040;28;20141;-53
2024/01/08 11:02:04;;;;;;;5.85;2.17;;;;;;;;;;5041769;28;20040;-53
2024/01/08 11:04:31;;;;;;;5.82;2.65;;;;;;;;;;5040028;28;20036;-53
2024/01/08 11:06:57;;;;;;;6.80;3.20;;;;;;;;;;5038706;28;20049;-56
2024/01/08 11:09:26;;;;;;;5.47;2.58;;;;;;;;;;5040660;28;20052;-55
2024/01/08 11:11:54;;;;;;;7.57;2.80;;;;;;;;;;5020072;28;20098;-53
2024/01/08 11:14:20;;;;;;;6.45;2.83;;;;;;;;;;5037589;28;20507;-55
2024/01/08 11:16:47;;;;;;;6.43;2.50;;;;;;;;;;5040998;28;20095;-55
2024/01/08 11:19:20;;;;;;;10.02;3.75;;;;;;;;;;5029856;28;20045;-54
2024/01/08 11:21:48;;;;;;;6.65;3.00;;;;;;;;;;5033898;28;20123;-54
2024/01/08 11:24:14;;;;;;;7.88;2.95;;;2.20;99.90;;;;;;5031918;28;20457;-54
2024/01/08 11:26:51;;;;;;;6.82;3.15;;;;;;;;;;5040940;28;20080;-55
2024/01/08 11:29:17;;;;;;;7.75;4.30;;;;;;;;;;5039373;28;20038;-53
2024/01/08 11:32:02;;;;;;;6.63;3.13;;;;;;;;;;5042891;28;20486;-55
2024/01/08 11:34:40;;;;;;;5.72;2.95;;;;;;;;;;5038417;28;20041;-54
2024/01/08 11:37:18;;;;;;;6.13;3.35;;;;;;;;;;5038019;28;20041;-55
2024/01/08 11:39:44;;;;;;;5.30;2.85;;;;;;;;;;5036854;28;20037;-55
2024/01/08 11:42:10;;;;;;;6.03;2.92;;;;;;;;;;5041588;28;20500;-54
2024/01/08 11:44:37;;;;;;;6.45;2.47;;;;;;;;;;5035132;28;20535;-55
2024/01/08 11:47:03;;;;;;;5.97;2.72;;;;;;;;;;5042089;28;20425;-54
2024/01/08 11:49:29;;;;;;;9.60;6.28;;;;;;;;;;5042674;28;20069;-55
2024/01/08 11:52:01;;;;;;;6.95;3.08;;;2.50;99.90;;;;;;5032911;28;20057;-54
2024/01/08 11:54:27;;;;;;;5.70;2.45;;;;;;;;;;5029739;28;20037;-55
2024/01/08 11:56:54;;;;;;;8.30;3.10;;;;;;;;;;5039184;28;20071;-51
2024/01/08 11:59:30;;;;;;;6.45;2.65;;;;;;;;;;5038211;28;20427;-55
2024/01/08 12:02:07;;;;;;;7.45;2.95;;;;;;;;;;5032542;28;20041;-54
2024/01/08 12:04:34;;;;;;;6.60;2.60;;;;;;;;;;5031476;28;20076;-53
2024/01/08 12:07:00;;;;;;;6.60;3.00;;;;;;;;;;5032606;28;20617;-54
2024/01/08 12:09:31;;;;;;;6.03;2.60;;;;;;;;;;5031144;28;20132;-53
2024/01/08 12:12:06;;;;;;;7.10;2.97;;;;;;;;;;5031797;28;20045;-55
2024/01/08 12:14:34;;;;;;;8.15;2.67;;;;;;;;;;5030924;28;20033;-54
2024/01/08 12:17:00;;;;;;;6.00;2.60;;;;;;;;;;5011038;28;20116;-55
2024/01/08 12:19:36;;;;;;;5.47;2.60;;;;;;;;;;5029807;28;20518;-51
2024/01/08 12:22:04;;;;;;;6.38;3.17;;;4.40;99.90;;;;;;5023722;28;20041;-54
2024/01/08 12:24:29;;;;;;;6.88;3.17;;;4.80;99.90;;;;;;5026277;28;20045;-55
2024/01/08 12:27:02;;;;;;;6.22;3.33;;;;;;;;;;5024966;28;20068;-55
2024/01/08 12:29:28;;;;;;;7.00;2.60;;;;;;;;;;5027948;28;20065;-53
2024/01/08 12:31:58;;;;;;;5.93;2.42;;;;;;;;;;5102168;23;20059;-51
2024/01/08 12:34:30;;;;;;;5.68;2.75;;;5.60;99.90;;;;;;4987552;28;20126;-53
2024/01/08 12:36:57;;;;;;;6.05;2.70;;;;;;;;;;4991432;28;20043;-50
2024/01/08 12:39:29;;;;;;;21.63;3.13;;;6.00;99.90;;;;;;4988479;28;20034;-50
2024/01/08 12:42:00;;;;;;;5.47;2.22;;;5.70;99.90;;;;;;4986128;28;20042;-50
2024/01/08 12:44:28;;;;;;;6.03;2.65;;;6.30;99.90;;;;;;4987691;28;20037;-49
2024/01/08 12:46:55;;;;;;;7.38;2.97;;;;;;;;;;4987522;28;20046;-53
2024/01/08 12:49:20;;;;;;;5.22;2.28;;;5.70;99.90;;;;;;4987345;28;20572;-52
2024/01/08 12:51:46;;;;;;;5.43;2.20;;;;;;;;;;4990237;28;20183;-54
2024/01/08 12:54:12;;;;;;;6.15;2.30;;;;;;;;;;4994916;28;20120;-53
2024/01/08 12:56:39;;;;;;;6.60;2.75;;;;;;;;;;4971183;28;20042;-51
2024/01/08 12:59:05;;;;;;;6.47;2.50;;;;;;;;;;4989060;28;20093;-53
2024/01/08 13:01:31;;;;;;;7.63;2.75;;;;;;;;;;4990402;28;20053;-51
2024/01/08 13:03:57;;;;;;;10.07;2.85;;;;;;;;;;4990524;28;20117;-54
2024/01/08 13:06:23;;;;;;;7.63;2.60;;;;;;;;;;4987573;28;20098;-51
2024/01/08 13:08:50;;;;;;;7.50;2.47;;;;;;;;;;4991176;28;20103;-52
2024/01/08 13:11:16;;;;;;;5.20;2.20;;;;;;;;;;4990504;28;20034;-52
2024/01/08 13:13:42;;;;;;;5.70;2.35;;;;;;;;;;4986815;28;20185;-49
2024/01/08 13:16:08;;;;;;;8.45;2.30;;;;;;;;;;4990630;28;20037;-49
2024/01/08 13:18:33;;;;;;;6.70;2.67;;;4.40;99.90;;;;;;4988711;28;20030;-50
2024/01/08 13:21:00;;;;;;;5.22;2.30;;;;;;;;;;4991768;28;20035;-50
2024/01/08 13:23:26;;;;;;;6.32;2.70;;;4.00;99.90;;;;;;4990564;28;20038;-50
2024/01/08 13:25:53;;;;;;;5.35;2.13;;;;;;;;;;4970789;28;20447;-50
2024/01/08 13:28:19;;;;;;;5.70;2.88;;;;;;;;;;4990246;28;20122;-51
2024/01/08 13:30:46;;;;;;;6.32;2.67;;;5.10;99.90;;;;;;4989300;28;20137;-50
2024/01/08 13:33:12;;;;;;;6.10;2.40;;;;;;;;;;4988963;28;20146;-53
2024/01/08 13:35:37;;;;;;;6.68;2.72;;;;;;;;;;4990194;28;20073;-51
2024/01/08 13:38:03;;;;;;;6.43;2.20;;;7.10;99.90;;;;;;4991616;28;20169;-50
2024/01/08 13:40:29;;;;;;;6.47;2.60;;;6.80;99.90;;;;;;4989764;28;20031;-50
2024/01/08 13:42:55;;;;;;;5.72;2.55;;;;;;;;;;4989426;28;20049;-55
2024/01/08 13:45:22;;;;;;;23.20;14.55;;;;;;;;;;4990820;28;20058;-54
2024/01/08 13:47:49;;;;;;;23.02;15.05;;;6.40;99.90;;;;;;4989972;28;20116;-52
2024/01/08 13:50:18;;;;;;;12.25;7.90;;;5.40;99.90;;;;;;4972524;28;20489;-52
2024/01/08 13:52:44;;;;;;;8.98;5.13;;;5.80;99.90;;;;;;4991543;28;20041;-54
2024/01/08 13:55:10;;;;;;;24.58;22.17;;;4.80;99.90;;;;;;4989981;28;20045;-54
2024/01/08 13:57:37;;;;;;;6.30;3.38;;;5.20;99.90;;;;;;4989703;28;20454;-54
2024/01/08 14:00:05;;;;;;;6.45;3.17;;;4.00;99.90;;;;;;4991813;28;20497;-49
2024/01/08 14:02:34;;;;;;;16.52;13.40;;;4.50;99.90;;;;;;4985544;28;20493;-51
2024/01/08 14:05:00;;;;;;;15.68;10.80;;;;;;;;;;4984998;28;20117;-51
2024/01/08 14:07:26;;;;;;;8.95;5.30;;;4.50;99.90;;;;;;4994077;28;20048;-53
2024/01/08 14:09:52;;;;;;;10.52;7.20;;;4.00;99.90;;;;;;4989524;28;20498;-50
2024/01/08 14:12:17;;;;;;;9.82;5.50;;;3.50;99.90;;;;;;4990269;28;20030;-52
2024/01/08 14:14:43;;;;;;;7.50;3.30;;;;;;;;;;4971301;28;20170;-54